createdAt,value
2019-04-26T00:00:58.043Z,0.00
2019-04-26T00:01:58.034Z,0.00
2019-04-26T00:02:58.031Z,0.00
2019-04-26T00:03:58.016Z,0.00
2019-04-26T00:04:58.006Z,0.00
2019-04-26T00:05:57.974Z,0.00
2019-04-26T00:06:58.007Z,0.00
2019-04-26T00:07:58.030Z,0.00
2019-04-26T00:08:57.953Z,0.00
2019-04-26T00:09:57.953Z,0.00
2019-04-26T00:10:57.929Z,0.00
2019-04-26T00:11:57.919Z,0.00
2019-04-26T00:12:57.900Z,0.00
2019-04-26T00:13:57.909Z,0.00
2019-04-26T00:14:57.912Z,0.00
2019-04-26T00:15:57.879Z,0.00
2019-04-26T00:16:57.873Z,0.00
2019-04-26T00:17:57.866Z,0.00
2019-04-26T00:18:57.854Z,0.00
2019-04-26T00:19:57.844Z,0.00
2019-04-26T00:20:57.813Z,0.00
2019-04-26T00:21:57.800Z,0.00
2019-04-26T00:22:57.788Z,0.00
2019-04-26T00:23:57.779Z,0.00
2019-04-26T00:24:57.806Z,0.00
2019-04-26T00:25:57.763Z,0.00
2019-04-26T00:26:57.752Z,0.00
2019-04-26T00:27:57.732Z,0.00
2019-04-26T00:28:57.726Z,0.00
2019-04-26T00:29:57.715Z,0.00
2019-04-26T00:30:57.721Z,0.00
2019-04-26T00:31:57.688Z,0.00
2019-04-26T00:32:57.683Z,0.00
2019-04-26T00:33:57.669Z,0.00
2019-04-26T00:34:57.661Z,0.00
2019-04-26T00:35:57.663Z,0.00
2019-04-26T00:36:57.636Z,0.00
2019-04-26T00:37:57.633Z,0.00
2019-04-26T00:38:57.607Z,0.00
2019-04-26T00:39:57.606Z,0.00
2019-04-26T00:40:57.620Z,0.00
2019-04-26T00:41:57.581Z,0.00
2019-04-26T00:42:57.722Z,0.00
2019-04-26T00:43:57.558Z,0.00
2019-04-26T00:44:57.549Z,0.00
2019-04-26T00:45:57.555Z,0.00
2019-04-26T00:46:57.534Z,0.00
2019-04-26T00:47:57.518Z,0.00
2019-04-26T00:48:57.508Z,0.00
2019-04-26T00:49:57.489Z,0.00
2019-04-26T00:50:57.514Z,0.00
2019-04-26T00:51:57.462Z,0.00
2019-04-26T00:52:57.446Z,0.00
2019-04-26T00:53:57.445Z,0.00
2019-04-26T00:54:57.451Z,0.00
2019-04-26T00:55:57.437Z,0.00
2019-04-26T00:56:57.408Z,0.00
2019-04-26T00:57:57.400Z,0.00
2019-04-26T00:58:57.385Z,0.00
2019-04-26T00:59:57.380Z,0.00
2019-04-26T01:00:57.396Z,0.00
2019-04-26T01:01:57.361Z,0.00
2019-04-26T01:02:57.378Z,0.00
2019-04-26T01:03:57.343Z,0.00
2019-04-26T01:04:57.312Z,0.00
2019-04-26T01:06:00.169Z,0.00
2019-04-26T01:06:57.298Z,0.00
2019-04-26T01:07:57.291Z,0.00
2019-04-26T01:08:57.275Z,0.00
2019-04-26T01:09:57.270Z,0.00
2019-04-26T01:10:57.280Z,0.00
2019-04-26T01:11:57.246Z,0.00
2019-04-26T01:12:57.232Z,0.00
2019-04-26T01:13:57.221Z,0.00
2019-04-26T01:14:57.209Z,0.00
2019-04-26T01:15:57.216Z,0.00
2019-04-26T01:16:57.194Z,0.00
2019-04-26T01:17:57.177Z,0.00
2019-04-26T01:18:57.162Z,0.00
2019-04-26T01:19:57.159Z,0.00
2019-04-26T01:20:57.159Z,0.00
2019-04-26T01:21:57.128Z,0.00
2019-04-26T01:22:57.112Z,0.00
2019-04-26T01:23:57.112Z,0.00
2019-04-26T01:24:57.099Z,0.00
2019-04-26T01:25:57.102Z,0.00
2019-04-26T01:26:57.131Z,0.00
2019-04-26T01:27:57.065Z,0.00
2019-04-26T01:28:57.063Z,0.00
2019-04-26T01:29:57.044Z,0.00
2019-04-26T01:30:57.056Z,0.00
2019-04-26T01:31:57.037Z,0.00
2019-04-26T01:32:57.007Z,0.00
2019-04-26T01:33:56.990Z,0.00
2019-04-26T01:34:56.992Z,0.00
2019-04-26T01:35:57.008Z,0.00
2019-04-26T01:36:56.963Z,0.00
2019-04-26T01:37:56.950Z,0.00
2019-04-26T01:38:56.955Z,0.00
2019-04-26T01:39:56.931Z,0.00
2019-04-26T01:40:56.922Z,0.00
2019-04-26T01:41:56.939Z,0.00
2019-04-26T01:42:56.896Z,0.00
2019-04-26T01:43:56.878Z,0.00
2019-04-26T01:44:56.872Z,0.00
2019-04-26T01:45:56.864Z,0.00
2019-04-26T01:46:56.874Z,0.00
2019-04-26T01:47:56.839Z,0.00
2019-04-26T01:48:56.830Z,0.00
2019-04-26T01:49:56.816Z,0.00
2019-04-26T01:50:56.796Z,0.00
2019-04-26T01:51:56.802Z,0.00
2019-04-26T01:52:56.774Z,0.00
2019-04-26T01:53:56.774Z,0.00
2019-04-26T01:54:56.759Z,0.00
2019-04-26T01:55:56.752Z,0.00
2019-04-26T01:56:56.747Z,0.00
2019-04-26T01:57:56.720Z,0.00
2019-04-26T01:58:56.714Z,0.00
2019-04-26T01:59:56.710Z,0.00
2019-04-26T02:00:56.688Z,0.00
2019-04-26T02:01:56.704Z,0.00
2019-04-26T02:02:56.678Z,0.00
2019-04-26T02:03:56.692Z,0.00
2019-04-26T02:04:56.656Z,0.00
2019-04-26T02:05:56.641Z,0.00
2019-04-26T02:06:56.637Z,0.00
2019-04-26T02:07:56.617Z,0.00
2019-04-26T02:08:56.600Z,0.00
2019-04-26T02:09:56.595Z,0.00
2019-04-26T02:10:56.577Z,0.00
2019-04-26T02:11:56.581Z,0.00
2019-04-26T02:12:56.551Z,0.00
2019-04-26T02:13:56.553Z,0.00
2019-04-26T02:14:56.525Z,0.00
2019-04-26T02:15:56.523Z,0.00
2019-04-26T02:16:56.531Z,0.00
2019-04-26T02:17:56.497Z,0.00
2019-04-26T02:18:56.483Z,0.00
2019-04-26T02:19:56.493Z,0.00
2019-04-26T02:20:56.471Z,0.00
2019-04-26T02:21:56.483Z,0.00
2019-04-26T02:22:56.449Z,0.00
2019-04-26T02:23:56.430Z,0.00
2019-04-26T02:24:56.427Z,0.00
2019-04-26T02:25:56.425Z,0.00
2019-04-26T02:26:56.411Z,0.00
2019-04-26T02:27:56.379Z,0.00
2019-04-26T02:28:56.382Z,0.00
2019-04-26T02:29:56.360Z,0.00
2019-04-26T02:30:56.369Z,0.00
2019-04-26T02:31:56.351Z,0.00
2019-04-26T02:32:56.343Z,0.00
2019-04-26T02:33:56.315Z,0.00
2019-04-26T02:34:56.298Z,0.00
2019-04-26T02:35:56.382Z,0.00
2019-04-26T02:36:58.804Z,0.00
2019-04-26T02:37:56.271Z,0.00
2019-04-26T02:38:56.257Z,0.00
2019-04-26T02:39:56.268Z,0.00
2019-04-26T02:40:56.231Z,0.00
2019-04-26T02:41:56.267Z,0.00
2019-04-26T02:42:56.207Z,0.00
2019-04-26T02:43:56.225Z,0.00
2019-04-26T02:44:56.189Z,0.00
2019-04-26T02:45:56.178Z,0.00
2019-04-26T02:46:56.191Z,0.00
2019-04-26T02:47:56.177Z,0.00
2019-04-26T02:48:56.157Z,0.00
2019-04-26T02:49:56.134Z,0.00
2019-04-26T02:50:56.126Z,0.00
2019-04-26T02:51:56.118Z,0.00
2019-04-26T02:52:56.115Z,0.00
2019-04-26T02:53:56.083Z,0.00
2019-04-26T02:54:56.074Z,0.00
2019-04-26T02:55:56.068Z,0.00
2019-04-26T02:56:56.067Z,0.00
2019-04-26T02:57:56.068Z,0.00
2019-04-26T02:58:56.036Z,0.00
2019-04-26T02:59:56.024Z,0.00
2019-04-26T03:00:56.006Z,0.00
2019-04-26T03:01:56.013Z,0.00
2019-04-26T03:02:56.010Z,0.00
2019-04-26T03:03:55.976Z,0.00
2019-04-26T03:04:55.966Z,0.00
2019-04-26T03:05:55.952Z,0.00
2019-04-26T03:07:03.707Z,0.00
2019-04-26T03:07:56.942Z,0.00
2019-04-26T03:08:55.922Z,0.00
2019-04-26T03:09:55.914Z,0.00
2019-04-26T03:10:55.916Z,0.00
2019-04-26T03:11:55.884Z,0.00
2019-04-26T03:12:55.894Z,0.00
2019-04-26T03:13:55.860Z,4.00
2019-04-26T03:15:12.206Z,4.00
2019-04-26T03:15:56.851Z,0.00
2019-04-26T03:16:55.832Z,4.00
2019-04-26T03:17:55.834Z,4.00
2019-04-26T03:18:55.829Z,4.00
2019-04-26T03:19:55.799Z,4.00
2019-04-26T03:20:55.815Z,4.00
2019-04-26T03:21:55.797Z,4.00
2019-04-26T03:22:55.785Z,8.00
2019-04-26T03:23:58.465Z,8.00
2019-04-26T03:24:56.250Z,12.00
2019-04-26T03:25:55.733Z,12.00
2019-04-26T03:26:55.723Z,12.00
2019-04-26T03:27:55.718Z,12.00
2019-04-26T03:28:55.693Z,16.00
2019-04-26T03:30:17.402Z,16.00
2019-04-26T03:30:56.680Z,20.00
2019-04-26T03:31:55.793Z,24.00
2019-04-26T03:32:55.883Z,24.00
2019-04-26T03:33:55.792Z,32.00
2019-04-26T03:34:55.927Z,36.00
2019-04-26T03:35:58.033Z,40.00
2019-04-26T03:36:55.607Z,44.00
2019-04-26T03:37:55.613Z,52.00
2019-04-26T03:38:55.577Z,56.00
2019-04-26T03:39:56.511Z,60.00
2019-04-26T03:40:55.562Z,68.00
2019-04-26T03:41:55.556Z,76.00
2019-04-26T03:42:55.549Z,84.00
2019-04-26T03:43:55.522Z,92.00
2019-04-26T03:44:55.516Z,100.00
2019-04-26T03:45:55.501Z,108.00
2019-04-26T03:46:55.497Z,120.00
2019-04-26T03:47:55.530Z,128.00
2019-04-26T03:48:55.478Z,140.00
2019-04-26T03:49:55.465Z,152.00
2019-04-26T03:50:55.446Z,164.00
2019-04-26T03:51:55.437Z,180.00
2019-04-26T03:52:55.435Z,196.00
2019-04-26T03:53:55.441Z,208.00
2019-04-26T03:54:55.399Z,224.00
2019-04-26T03:55:55.393Z,244.00
2019-04-26T03:56:55.375Z,264.00
2019-04-26T03:57:55.390Z,280.00
2019-04-26T03:58:55.383Z,288.00
2019-04-26T03:59:55.341Z,300.00
2019-04-26T04:00:55.347Z,312.00
2019-04-26T04:01:55.313Z,328.00
2019-04-26T04:02:55.312Z,348.00
2019-04-26T04:03:55.308Z,364.00
2019-04-26T04:04:55.304Z,380.00
2019-04-26T04:05:55.342Z,392.00
2019-04-26T04:07:03.792Z,404.00
2019-04-26T04:07:56.252Z,420.00
2019-04-26T04:08:55.257Z,432.00
2019-04-26T04:09:55.240Z,444.00
2019-04-26T04:10:55.229Z,460.00
2019-04-26T04:12:10.264Z,476.00
2019-04-26T04:12:56.259Z,492.00
2019-04-26T04:13:55.289Z,516.00
2019-04-26T04:14:55.206Z,540.00
2019-04-26T04:15:55.169Z,572.00
2019-04-26T04:16:55.164Z,608.00
2019-04-26T04:17:55.143Z,652.00
2019-04-26T04:18:55.150Z,704.00
2019-04-26T04:19:55.122Z,760.00
2019-04-26T04:20:55.132Z,816.00
2019-04-26T04:21:55.103Z,872.00
2019-04-26T04:22:55.116Z,932.00
2019-04-26T04:23:55.106Z,980.00
2019-04-26T04:24:55.077Z,1028.00
2019-04-26T04:25:55.054Z,1072.00
2019-04-26T04:26:55.042Z,1104.00
2019-04-26T04:27:55.048Z,1124.00
2019-04-26T04:31:14.249Z,1128.00
2019-04-26T04:32:14.220Z,1128.00
2019-04-26T04:33:14.224Z,1116.00
2019-04-26T04:34:14.234Z,1104.00
2019-04-26T04:35:15.116Z,1100.00
2019-04-26T04:36:14.172Z,1100.00
2019-04-26T04:37:14.171Z,1088.00
2019-04-26T04:38:14.171Z,1080.00
2019-04-26T04:39:14.141Z,1076.00
2019-04-26T04:40:14.130Z,1080.00
2019-04-26T04:41:14.128Z,1080.00
2019-04-26T04:42:14.110Z,1068.00
2019-04-26T04:43:14.214Z,1064.00
2019-04-26T04:44:14.088Z,1052.00
2019-04-26T04:45:14.087Z,1048.00
2019-04-26T04:46:14.168Z,1052.00
2019-04-26T04:47:23.546Z,1064.00
2019-04-26T04:48:15.074Z,1080.00
2019-04-26T04:49:14.033Z,1088.00
2019-04-26T04:50:14.021Z,1108.00
2019-04-26T04:51:14.046Z,1128.00
2019-04-26T04:52:13.998Z,1152.00
2019-04-26T04:53:13.997Z,1172.00
2019-04-26T04:54:14.001Z,1184.00
2019-04-26T04:55:13.966Z,1200.00
2019-04-26T04:56:13.952Z,1220.00
2019-04-26T04:57:13.939Z,1236.00
2019-04-26T04:58:13.930Z,1248.00
2019-04-26T04:59:13.930Z,1256.00
2019-04-26T05:00:13.913Z,1264.00
2019-04-26T05:01:13.904Z,1268.00
2019-04-26T05:02:13.878Z,1272.00
2019-04-26T05:03:13.880Z,1272.00
2019-04-26T05:04:13.895Z,1264.00
2019-04-26T05:05:13.858Z,1264.00
2019-04-26T05:06:13.873Z,1256.00
2019-04-26T05:07:14.550Z,1248.00
2019-04-26T05:08:13.818Z,1260.00
2019-04-26T05:09:13.828Z,1292.00
2019-04-26T05:10:13.800Z,1368.00
2019-04-26T05:11:13.806Z,1428.00
2019-04-26T05:12:13.783Z,1472.00
2019-04-26T05:13:13.793Z,1504.00
2019-04-26T05:14:13.769Z,1524.00
2019-04-26T05:15:13.747Z,1548.00
2019-04-26T05:16:13.724Z,1564.00
2019-04-26T05:17:13.725Z,1576.00
2019-04-26T05:18:13.703Z,1592.00
2019-04-26T05:19:13.722Z,1608.00
2019-04-26T05:20:13.691Z,1616.00
2019-04-26T05:21:13.669Z,1628.00
2019-04-26T05:22:13.707Z,1640.00
2019-04-26T05:23:13.661Z,1652.00
2019-04-26T05:24:13.658Z,1656.00
2019-04-26T05:25:13.629Z,1664.00
2019-04-26T05:26:13.623Z,1668.00
2019-04-26T05:27:13.620Z,1672.00
2019-04-26T05:28:13.601Z,1672.00
2019-04-26T05:29:13.613Z,1676.00
2019-04-26T05:30:13.583Z,1680.00
2019-04-26T05:31:13.567Z,1688.00
2019-04-26T05:32:13.559Z,1692.00
2019-04-26T05:33:13.594Z,1696.00
2019-04-26T05:34:13.547Z,1692.00
2019-04-26T05:35:13.539Z,1688.00
2019-04-26T05:36:13.517Z,1696.00
2019-04-26T05:37:13.492Z,1708.00
2019-04-26T05:38:18.509Z,1728.00
2019-04-26T05:39:14.501Z,1736.00
2019-04-26T05:40:13.471Z,1740.00
2019-04-26T05:41:13.447Z,1748.00
2019-04-26T05:42:13.448Z,1752.00
2019-04-26T05:43:13.435Z,1760.00
2019-04-26T05:44:13.449Z,1768.00
2019-04-26T05:45:13.418Z,1776.00
2019-04-26T05:46:13.394Z,1772.00
2019-04-26T05:47:13.381Z,1760.00
2019-04-26T05:48:13.384Z,1748.00
2019-04-26T05:49:13.368Z,1740.00
2019-04-26T05:50:13.367Z,1768.00
2019-04-26T05:51:13.351Z,1792.00
2019-04-26T05:52:13.696Z,1804.00
2019-04-26T05:53:13.323Z,1812.00
2019-04-26T05:54:13.333Z,1824.00
2019-04-26T05:55:13.317Z,1848.00
2019-04-26T05:56:13.301Z,1868.00
2019-04-26T05:57:13.281Z,1888.00
2019-04-26T05:58:13.280Z,1904.00
2019-04-26T05:59:13.262Z,1924.00
2019-04-26T06:00:13.277Z,1924.00
2019-04-26T06:01:13.234Z,1916.00
2019-04-26T06:02:13.218Z,1920.00
2019-04-26T06:03:13.216Z,1924.00
2019-04-26T06:04:13.200Z,1932.00
2019-04-26T06:05:13.198Z,1928.00
2019-04-26T06:06:13.181Z,1928.00
2019-04-26T06:07:13.174Z,1940.00
2019-04-26T06:08:13.171Z,1936.00
2019-04-26T06:09:13.159Z,1920.00
2019-04-26T06:10:13.162Z,1908.00
2019-04-26T06:11:13.128Z,1876.00
2019-04-26T06:12:13.103Z,1904.00
2019-04-26T06:13:13.105Z,1904.00
2019-04-26T06:14:13.136Z,1884.00
2019-04-26T06:15:13.098Z,1872.00
2019-04-26T06:16:13.066Z,1860.00
2019-04-26T06:17:13.052Z,1868.00
2019-04-26T06:18:13.056Z,1856.00
2019-04-26T06:19:13.036Z,1856.00
2019-04-26T06:20:22.674Z,1856.00
2019-04-26T06:21:14.024Z,1852.00
2019-04-26T06:22:13.010Z,1860.00
2019-04-26T06:23:13.010Z,1856.00
2019-04-26T06:24:12.976Z,1860.00
2019-04-26T06:25:13.009Z,1860.00
2019-04-26T06:26:12.956Z,1876.00
2019-04-26T06:27:14.295Z,1884.00
2019-04-26T06:28:12.969Z,1912.00
2019-04-26T06:29:12.942Z,1924.00
2019-04-26T06:30:12.948Z,1932.00
2019-04-26T06:31:12.944Z,1932.00
2019-04-26T06:32:12.968Z,1936.00
2019-04-26T06:33:12.871Z,1924.00
2019-04-26T06:34:12.869Z,1924.00
2019-04-26T06:35:12.885Z,1916.00
2019-04-26T06:36:12.930Z,1912.00
2019-04-26T06:37:12.852Z,1924.00
2019-04-26T06:38:12.841Z,1940.00
2019-04-26T06:39:12.812Z,1952.00
2019-04-26T06:40:12.826Z,1964.00
2019-04-26T06:41:12.795Z,1968.00
2019-04-26T06:42:12.771Z,1980.00
2019-04-26T06:43:12.765Z,1976.00
2019-04-26T06:44:12.758Z,1972.00
2019-04-26T06:45:12.763Z,1964.00
2019-04-26T06:46:12.736Z,1956.00
2019-04-26T06:47:12.712Z,1952.00
2019-04-26T06:48:12.754Z,1936.00
2019-04-26T06:49:12.694Z,1936.00
2019-04-26T06:50:12.710Z,1924.00
2019-04-26T06:51:23.800Z,1928.00
2019-04-26T06:52:13.664Z,1924.00
2019-04-26T06:53:12.648Z,1932.00
2019-04-26T06:54:12.677Z,1952.00
2019-04-26T06:55:12.642Z,1948.00
2019-04-26T06:56:12.617Z,1952.00
2019-04-26T06:57:15.161Z,1948.00
2019-04-26T06:58:13.066Z,1956.00
2019-04-26T06:59:12.588Z,1964.00
2019-04-26T07:00:12.612Z,1972.00
2019-04-26T07:01:12.623Z,1968.00
2019-04-26T07:02:12.569Z,1976.00
2019-04-26T07:03:12.546Z,1984.00
2019-04-26T07:04:12.741Z,1992.00
2019-04-26T07:05:15.206Z,2000.00
2019-04-26T07:06:12.534Z,2012.00
2019-04-26T07:07:13.417Z,2028.00
2019-04-26T07:08:12.757Z,2040.00
2019-04-26T07:09:12.487Z,2072.00
2019-04-26T07:10:12.461Z,2104.00
2019-04-26T07:11:12.471Z,2148.00
2019-04-26T07:12:12.462Z,2172.00
2019-04-26T07:13:14.797Z,2212.00
2019-04-26T07:14:12.423Z,2260.00
2019-04-26T07:15:12.414Z,2304.00
2019-04-26T07:16:22.399Z,2336.00
2019-04-26T07:17:13.389Z,2392.00
2019-04-26T07:18:12.871Z,2488.00
2019-04-26T07:19:13.318Z,2620.00
2019-04-26T07:20:12.393Z,2764.00
2019-04-26T07:21:12.364Z,2948.00
2019-04-26T07:22:12.334Z,3128.00
2019-04-26T07:23:12.658Z,3288.00
2019-04-26T07:24:13.349Z,3444.00
2019-04-26T07:25:12.308Z,3616.00
2019-04-26T07:26:12.309Z,3816.00
2019-04-26T07:27:13.117Z,4036.00
2019-04-26T07:28:12.508Z,4276.00
2019-04-26T07:29:12.260Z,4488.00
2019-04-26T07:30:12.396Z,4648.00
2019-04-26T07:31:13.074Z,4724.00
2019-04-26T07:32:12.227Z,4696.00
2019-04-26T07:33:12.632Z,4644.00
2019-04-26T07:34:12.199Z,4616.00
2019-04-26T07:35:13.028Z,4740.00
2019-04-26T07:36:12.202Z,4812.00
2019-04-26T07:37:12.164Z,4768.00
2019-04-26T07:38:12.151Z,4836.00
2019-04-26T07:39:19.483Z,4864.00
2019-04-26T07:40:13.134Z,4916.00
2019-04-26T07:41:12.162Z,4912.00
2019-04-26T07:42:12.117Z,4760.00
2019-04-26T07:43:12.536Z,4640.00
2019-04-26T07:44:12.092Z,4424.00
2019-04-26T07:45:12.379Z,4192.00
2019-04-26T07:46:12.689Z,3968.00
2019-04-26T07:47:14.326Z,3768.00
2019-04-26T07:48:12.065Z,3624.00
2019-04-26T07:49:12.541Z,3592.00
2019-04-26T07:50:12.034Z,3676.00
2019-04-26T07:51:12.024Z,3744.00
2019-04-26T07:52:12.670Z,3556.00
2019-04-26T07:53:11.982Z,3504.00
2019-04-26T07:54:12.975Z,3480.00
2019-04-26T07:55:12.866Z,3488.00
2019-04-26T07:56:11.992Z,3532.00
2019-04-26T07:57:12.840Z,3548.00
2019-04-26T07:58:11.925Z,3604.00
2019-04-26T07:59:12.852Z,3756.00
2019-04-26T08:00:12.949Z,3968.00
2019-04-26T08:01:12.019Z,4112.00
2019-04-26T08:02:11.886Z,4232.00
2019-04-26T08:03:12.815Z,4280.00
2019-04-26T08:04:11.864Z,4232.00
2019-04-26T08:05:11.868Z,4320.00
2019-04-26T08:06:11.857Z,4396.00
2019-04-26T08:07:11.832Z,4488.00
2019-04-26T08:08:12.794Z,4544.00
2019-04-26T08:09:24.776Z,4660.00
2019-04-26T08:10:12.826Z,4880.00
2019-04-26T08:11:12.871Z,4936.00
2019-04-26T08:12:12.204Z,5036.00
2019-04-26T08:13:11.774Z,5208.00
2019-04-26T08:14:12.549Z,5452.00
2019-04-26T08:15:11.736Z,5468.00
2019-04-26T08:16:12.399Z,5612.00
2019-04-26T08:17:12.555Z,5756.00
2019-04-26T08:18:11.716Z,5796.00
2019-04-26T08:19:12.606Z,5912.00
2019-04-26T08:20:12.918Z,6080.00
2019-04-26T08:21:15.805Z,6348.00
2019-04-26T08:22:20.392Z,6500.00
2019-04-26T08:23:35.111Z,6496.00
2019-04-26T08:24:12.638Z,6404.00
2019-04-26T08:25:12.451Z,6300.00
2019-04-26T08:26:11.658Z,6260.00
2019-04-26T08:27:18.736Z,6136.00
2019-04-26T08:28:12.617Z,6056.00
2019-04-26T08:29:12.622Z,5908.00
2019-04-26T08:30:15.563Z,5680.00
2019-04-26T08:31:15.484Z,5380.00
2019-04-26T08:32:13.272Z,5300.00
2019-04-26T08:33:13.163Z,5144.00
2019-04-26T08:34:12.346Z,5180.00
2019-04-26T08:35:16.840Z,5100.00
2019-04-26T08:36:12.760Z,4892.00
2019-04-26T08:37:12.586Z,4600.00
2019-04-26T08:38:16.422Z,4428.00
2019-04-26T08:39:13.028Z,4300.00
2019-04-26T08:40:16.328Z,4280.00
2019-04-26T08:41:13.432Z,4276.00
2019-04-26T08:42:19.228Z,4432.00
2019-04-26T08:43:12.455Z,4592.00
2019-04-26T08:44:11.460Z,4792.00
2019-04-26T08:45:13.757Z,5076.00
2019-04-26T08:46:12.967Z,5368.00
2019-04-26T08:47:16.782Z,5716.00
2019-04-26T08:48:12.391Z,5992.00
2019-04-26T08:49:11.386Z,6208.00
2019-04-26T08:50:13.682Z,6532.00
2019-04-26T08:51:11.363Z,6888.00
2019-04-26T08:52:14.579Z,7188.00
2019-04-26T08:53:11.330Z,7416.00
2019-04-26T08:54:11.334Z,7616.00
2019-04-26T08:55:11.321Z,7716.00
2019-04-26T08:56:11.619Z,7640.00
2019-04-26T08:57:11.296Z,7504.00
2019-04-26T08:58:11.283Z,7516.00
2019-04-26T08:59:11.286Z,7524.00
2019-04-26T09:00:11.254Z,7620.00
2019-04-26T09:01:11.258Z,7660.00
2019-04-26T09:02:11.229Z,7724.00
2019-04-26T09:03:12.056Z,7752.00
2019-04-26T09:04:11.220Z,7764.00
2019-04-26T09:05:11.216Z,7744.00
2019-04-26T09:06:11.248Z,7704.00
2019-04-26T09:07:11.177Z,7720.00
2019-04-26T09:08:11.170Z,7776.00
2019-04-26T09:09:14.335Z,7880.00
2019-04-26T09:10:12.152Z,8016.00
2019-04-26T09:11:23.661Z,8052.00
2019-04-26T09:12:22.559Z,8036.00
2019-04-26T09:13:12.108Z,8068.00
2019-04-26T09:14:11.106Z,8188.00
2019-04-26T09:15:11.111Z,8508.00
2019-04-26T09:16:11.211Z,8576.00
2019-04-26T09:17:11.124Z,8504.00
2019-04-26T09:18:11.064Z,8348.00
2019-04-26T09:19:11.048Z,7808.00
2019-04-26T09:20:11.041Z,7192.00
2019-04-26T09:21:13.250Z,6416.00
2019-04-26T09:22:13.119Z,5780.00
2019-04-26T09:23:11.005Z,5412.00
2019-04-26T09:24:10.982Z,5264.00
2019-04-26T09:25:10.976Z,5352.00
2019-04-26T09:26:12.555Z,5604.00
2019-04-26T09:27:10.965Z,5940.00
2019-04-26T09:28:10.953Z,6268.00
2019-04-26T09:29:10.950Z,6564.00
2019-04-26T09:30:10.918Z,6812.00
2019-04-26T09:31:10.930Z,7084.00
2019-04-26T09:32:10.906Z,7360.00
2019-04-26T09:33:10.967Z,7596.00
2019-04-26T09:34:11.472Z,8008.00
2019-04-26T09:35:11.330Z,8392.00
2019-04-26T09:36:10.873Z,8740.00
2019-04-26T09:37:10.849Z,9084.00
2019-04-26T09:38:10.841Z,9396.00
2019-04-26T09:39:10.831Z,9524.00
2019-04-26T09:40:10.990Z,9728.00
2019-04-26T09:41:10.832Z,9624.00
2019-04-26T09:42:10.786Z,9312.00
2019-04-26T09:43:15.151Z,8668.00
2019-04-26T09:44:11.772Z,7952.00
2019-04-26T09:45:10.764Z,7256.00
2019-04-26T09:46:10.781Z,6656.00
2019-04-26T09:47:10.744Z,6172.00
2019-04-26T09:48:10.727Z,5868.00
2019-04-26T09:49:10.711Z,5820.00
2019-04-26T09:50:11.229Z,5892.00
2019-04-26T09:51:10.716Z,5980.00
2019-04-26T09:52:10.741Z,5932.00
2019-04-26T09:53:10.663Z,5848.00
2019-04-26T09:54:10.666Z,6080.00
2019-04-26T09:55:10.653Z,6620.00
2019-04-26T09:56:10.676Z,7292.00
2019-04-26T09:57:10.661Z,7836.00
2019-04-26T09:58:10.635Z,8168.00
2019-04-26T09:59:10.609Z,8424.00
2019-04-26T10:00:14.314Z,8528.00
2019-04-26T10:01:10.607Z,8520.00
2019-04-26T10:02:10.579Z,8456.00
2019-04-26T10:03:10.789Z,8376.00
2019-04-26T10:04:10.631Z,8120.00
2019-04-26T10:05:12.067Z,7712.00
2019-04-26T10:06:10.543Z,7248.00
2019-04-26T10:07:10.527Z,7048.00
2019-04-26T10:08:13.012Z,6896.00
2019-04-26T10:09:10.505Z,6848.00
2019-04-26T10:10:22.348Z,6856.00
2019-04-26T10:11:11.512Z,6904.00
2019-04-26T10:12:10.473Z,6688.00
2019-04-26T10:13:10.449Z,6448.00
2019-04-26T10:14:10.446Z,6292.00
2019-04-26T10:15:10.427Z,6236.00
2019-04-26T10:16:10.439Z,5792.00
2019-04-26T10:17:11.465Z,5388.00
2019-04-26T10:18:10.411Z,5136.00
2019-04-26T10:19:10.391Z,4820.00
2019-04-26T10:20:10.416Z,4716.00
2019-04-26T10:21:10.396Z,4900.00
2019-04-26T10:22:10.373Z,5428.00
2019-04-26T10:23:10.347Z,5800.00
2019-04-26T10:24:10.356Z,5920.00
2019-04-26T10:25:16.737Z,6256.00
2019-04-26T10:26:11.335Z,6396.00
2019-04-26T10:27:10.311Z,6452.00
2019-04-26T10:28:11.711Z,6540.00
2019-04-26T10:29:11.282Z,6312.00
2019-04-26T10:30:10.277Z,6240.00
2019-04-26T10:31:13.543Z,6240.00
2019-04-26T10:32:10.277Z,6216.00
2019-04-26T10:33:10.239Z,5924.00
2019-04-26T10:34:11.773Z,6052.00
2019-04-26T10:35:10.216Z,6220.00
2019-04-26T10:36:10.211Z,6172.00
2019-04-26T10:37:10.183Z,5940.00
2019-04-26T10:38:10.176Z,5764.00
2019-04-26T10:39:10.203Z,5592.00
2019-04-26T10:40:10.161Z,5604.00
2019-04-26T10:41:10.170Z,5492.00
2019-04-26T10:42:10.138Z,5444.00
2019-04-26T10:43:10.144Z,5524.00
2019-04-26T10:44:10.125Z,5536.00
2019-04-26T10:45:10.476Z,5464.00
2019-04-26T10:46:10.106Z,5388.00
2019-04-26T10:47:10.072Z,5344.00
2019-04-26T10:48:14.079Z,5256.00
2019-04-26T10:49:12.112Z,5264.00
2019-04-26T10:50:10.108Z,5264.00
2019-04-26T10:51:10.061Z,5316.00
2019-04-26T10:52:11.983Z,5232.00
2019-04-26T10:53:11.009Z,5092.00
2019-04-26T10:54:10.001Z,4868.00
2019-04-26T10:55:12.251Z,4888.00
2019-04-26T10:56:10.999Z,4836.00
2019-04-26T10:57:09.985Z,4828.00
2019-04-26T10:58:09.976Z,4840.00
2019-04-26T10:59:10.871Z,4824.00
2019-04-26T11:00:09.926Z,4784.00
2019-04-26T11:01:09.957Z,4708.00
2019-04-26T11:02:09.942Z,4616.00
2019-04-26T11:03:09.913Z,4464.00
2019-04-26T11:04:09.912Z,4292.00
2019-04-26T11:05:11.716Z,4216.00
2019-04-26T11:06:10.884Z,4100.00
2019-04-26T11:07:09.978Z,4000.00
2019-04-26T11:08:09.858Z,3892.00
2019-04-26T11:09:09.884Z,3808.00
2019-04-26T11:10:09.844Z,3680.00
2019-04-26T11:11:09.844Z,3648.00
2019-04-26T11:12:09.811Z,3620.00
2019-04-26T11:13:09.796Z,3604.00
2019-04-26T11:14:09.784Z,3604.00
2019-04-26T11:15:09.775Z,3592.00
2019-04-26T11:16:09.786Z,3604.00
2019-04-26T11:17:11.487Z,3604.00
2019-04-26T11:18:10.749Z,3604.00
2019-04-26T11:19:09.737Z,3616.00
2019-04-26T11:20:10.532Z,3652.00
2019-04-26T11:21:09.787Z,3660.00
2019-04-26T11:22:09.692Z,3692.00
2019-04-26T11:23:11.717Z,3700.00
2019-04-26T11:24:09.666Z,3684.00
2019-04-26T11:25:09.668Z,3648.00
2019-04-26T11:26:09.657Z,3628.00
2019-04-26T11:27:11.107Z,3604.00
2019-04-26T11:28:09.655Z,3628.00
2019-04-26T11:29:09.620Z,3636.00
2019-04-26T11:30:12.303Z,3688.00
2019-04-26T11:31:10.626Z,3744.00
2019-04-26T11:32:09.594Z,3712.00
2019-04-26T11:33:11.003Z,3760.00
2019-04-26T11:34:09.562Z,3796.00
2019-04-26T11:35:09.544Z,3920.00
2019-04-26T11:36:09.678Z,4000.00
2019-04-26T11:37:09.528Z,3952.00
2019-04-26T11:38:09.524Z,4056.00
2019-04-26T11:39:09.531Z,4224.00
2019-04-26T11:40:10.299Z,4312.00
2019-04-26T11:41:09.515Z,4376.00
2019-04-26T11:42:11.751Z,4340.00
2019-04-26T11:43:09.464Z,4356.00
2019-04-26T11:44:09.442Z,4476.00
2019-04-26T11:45:10.789Z,4372.00
2019-04-26T11:46:10.465Z,4376.00
2019-04-26T11:47:09.423Z,4264.00
2019-04-26T11:48:09.452Z,4188.00
2019-04-26T11:49:09.413Z,4600.00
2019-04-26T11:50:12.556Z,5296.00
2019-04-26T11:51:10.434Z,5852.00
2019-04-26T11:52:09.372Z,6196.00
2019-04-26T11:53:10.161Z,6408.00
2019-04-26T11:54:09.348Z,6372.00
2019-04-26T11:55:09.335Z,6252.00
2019-04-26T11:56:09.335Z,6020.00
2019-04-26T11:57:12.027Z,5672.00
2019-04-26T11:58:09.304Z,5360.00
2019-04-26T11:59:09.307Z,5328.00
2019-04-26T12:00:09.302Z,5532.00
2019-04-26T12:01:09.295Z,5552.00
2019-04-26T12:02:12.382Z,5840.00
2019-04-26T12:03:10.242Z,6220.00
2019-04-26T12:04:09.234Z,6576.00
2019-04-26T12:05:09.217Z,6808.00
2019-04-26T12:06:09.210Z,7152.00
2019-04-26T12:07:09.228Z,7632.00
2019-04-26T12:08:09.185Z,8180.00
2019-04-26T12:09:09.185Z,8576.00
2019-04-26T12:10:09.948Z,9212.00
2019-04-26T12:11:18.198Z,9820.00
2019-04-26T12:12:13.173Z,10452.00
2019-04-26T12:13:09.165Z,10636.00
2019-04-26T12:14:19.695Z,10640.00
2019-04-26T12:15:10.249Z,10392.00
2019-04-26T12:16:09.921Z,10272.00
2019-04-26T12:17:09.104Z,10316.00
2019-04-26T12:18:09.913Z,9960.00
2019-04-26T12:19:09.068Z,10012.00
2019-04-26T12:20:09.052Z,9948.00
2019-04-26T12:21:09.052Z,9844.00
2019-04-26T12:22:09.950Z,9940.00
2019-04-26T12:23:09.028Z,9772.00
2019-04-26T12:24:09.010Z,9704.00
2019-04-26T12:25:09.008Z,9768.00
2019-04-26T12:26:08.993Z,9796.00
2019-04-26T12:27:10.316Z,9904.00
2019-04-26T12:28:09.036Z,10024.00
2019-04-26T12:29:10.446Z,10204.00